Time;durP1;ratioP1;P1;durP2;ratioP2;P2;SDS_P1;SDS_P2;PMS_P1;PMS_P2;Temp;Humidity;BMP_temperature;BMP_pressure;BME280_temperature;BME280_humidity;BME280_pressure;Samples;Min_cycle;Max_cycle;Signal;HPM_P1;HPM_P2
2021/04/15 00:01:12;;;;;;;34.53;23.55;;;;;;;7.64;71.92;99172.88;1720435;83;21154;-63
2021/04/15 00:03:42;;;;;;;38.05;25.23;;;;;;;7.58;72.08;99171.24;1736768;82;21130;-63
2021/04/15 00:06:25;;;;;;;33.15;24.82;;;;;;;7.49;72.42;99169.03;1695287;83;21769;-63
2021/04/15 00:08:54;;;;;;;32.15;23.67;;;;;;;7.45;72.67;99169.29;1718339;82;21662;-64
2021/04/15 00:11:26;;;;;;;31.87;21.48;;;;;;;7.51;72.45;99174.99;1714629;83;21161;-63
2021/04/15 00:13:56;;;;;;;30.12;22.52;;;;;;;7.60;72.02;99169.89;1714347;84;21213;-62
2021/04/15 00:16:27;;;;;;;27.70;21.87;;;;;;;7.54;71.97;99165.55;1728895;83;22197;-63
2021/04/15 00:18:56;;;;;;;28.60;22.17;;;;;;;7.48;72.10;99170.11;1732888;82;21597;-63
2021/04/15 00:21:25;;;;;;;32.55;22.98;;;;;;;7.45;72.02;99171.17;1714580;84;21138;-63
2021/04/15 00:23:53;;;;;;;28.62;20.90;;;;;;;7.37;72.00;99168.44;1680574;84;21193;-62
2021/04/15 00:26:22;;;;;;;31.60;21.15;;;;;;;7.40;71.72;99169.83;1713661;83;22128;-63
2021/04/15 00:28:52;;;;;;;27.73;21.25;;;;;;;7.46;71.20;99166.86;1698375;83;21159;-62
2021/04/15 00:31:19;;;;;;;31.45;22.62;;;;;;;7.40;71.28;99167.11;1734340;82;21189;-63
2021/04/15 00:33:48;;;;;;;28.60;21.85;;;;;;;7.27;71.64;99164.34;1724158;82;21158;-63
2021/04/15 00:36:19;;;;;;;34.88;23.87;;;;;;;7.16;71.74;99161.30;1706114;83;21655;-63
2021/04/15 00:38:49;;;;;;;32.63;24.25;;;;;;;7.08;71.87;99160.47;1706393;83;21163;-64
2021/04/15 00:41:17;;;;;;;31.30;22.73;;;;;;;7.10;71.88;99164.25;1709762;84;21147;-62
2021/04/15 00:43:45;;;;;;;33.73;23.40;;;;;;;7.12;71.69;99160.19;1712369;83;21170;-62
2021/04/15 00:46:51;;;;;;;32.00;22.60;;;;;;;7.03;72.02;99157.72;1728191;82;21142;-61
2021/04/15 00:49:37;;;;;;;32.08;24.23;;;;;;;6.89;72.52;99155.20;1755430;81;21182;-62
2021/04/15 00:52:10;;;;;;;33.60;22.98;;;;;;;6.68;73.21;99141.28;1730973;81;21137;-61
2021/04/15 00:54:47;;;;;;;36.90;24.92;;;;;;;6.65;73.29;99138.56;1750673;81;21590;-62
2021/04/15 00:57:25;;;;;;;35.58;23.95;;;;;;;6.71;73.39;99138.87;1771385;81;21304;-62
2021/04/15 00:59:52;;;;;;;37.15;25.35;;;;;;;6.62;74.01;99136.39;1682563;84;21974;-62
2021/04/15 01:02:21;;;;;;;39.00;26.65;;;;;;;6.52;74.43;99141.70;1680193;85;21308;-62
2021/04/15 01:04:51;;;;;;;37.03;25.10;;;;;;;6.52;74.86;99140.34;1742940;82;21213;-62
2021/04/15 01:07:21;;;;;;;33.83;24.43;;;;;;;6.57;74.83;99142.28;1768341;81;21134;-62
2021/04/15 01:09:50;;;;;;;35.30;24.18;;;;;;;6.48;75.16;99142.75;1740700;82;21183;-62
2021/04/15 01:12:27;;;;;;;32.65;25.00;;;;;;;6.40;75.41;99143.80;1740787;82;21106;-61
2021/04/15 01:15:18;;;;;;;36.80;25.13;;;;;;;6.33;75.59;99133.20;1741310;81;21174;-63
2021/04/15 01:17:51;;;;;;;31.37;23.25;;;;;;;6.38;75.76;99140.52;1740985;82;21872;-61
2021/04/15 01:21:01;;;;;;;31.50;24.60;;;;;;;6.43;75.40;99138.68;1749299;81;21199;-61
2021/04/15 01:23:48;;;;;;;39.18;25.10;;;;;;;6.34;75.80;99132.67;1695469;84;21170;-62
2021/04/15 01:27:14;;;;;;;33.05;24.30;;;;;;;6.20;76.31;99138.23;1680328;84;21190;-62
2021/04/15 01:30:14;;;;;;;34.48;23.52;;;;;;;6.21;76.28;99135.25;1685835;84;21216;-62
2021/04/15 01:32:58;;;;;;;33.35;23.75;;;;;;;6.24;76.20;99132.56;1707021;83;21190;-63
2021/04/15 01:35:39;;;;;;;32.85;24.60;;;;;;;6.16;76.30;99137.93;1705773;83;21150;-63
2021/04/15 01:38:15;;;;;;;33.13;24.20;;;;;;;6.11;76.62;99136.52;1705234;84;21203;-62
2021/04/15 01:40:52;;;;;;;31.30;23.80;;;;;;;6.18;76.51;99132.25;1680339;83;21312;-63
2021/04/15 01:43:32;;;;;;;32.13;23.45;;;;;;;6.22;76.45;99126.08;1708249;83;21143;-62
2021/04/15 01:46:00;;;;;;;33.30;24.05;;;;;;;6.22;76.67;99127.43;1740467;81;21520;-62
2021/04/15 01:48:43;;;;;;;34.48;24.52;;;;;;;6.25;76.71;99124.74;1747007;81;21138;-62
2021/04/15 01:51:27;;;;;;;31.37;22.30;;;;;;;6.33;76.33;99125.63;1726772;82;21630;-62
2021/04/15 01:54:17;;;;;;;26.70;21.12;;;;;;;6.45;75.92;99125.70;1680750;84;21312;-63
2021/04/15 01:57:08;;;;;;;30.70;23.05;;;;;;;6.45;76.05;99121.65;1680189;85;21163;-63
2021/04/15 01:59:56;;;;;;;31.02;23.27;;;;;;;6.41;76.29;99119.19;1746420;81;21170;-63
2021/04/15 02:02:42;;;;;;;32.15;23.07;;;;;;;6.37;76.39;99115.92;1744443;81;21558;-62
2021/04/15 02:05:20;;;;;;;34.00;22.85;;;;;;;6.43;76.28;99117.05;1743002;81;21721;-62
2021/04/15 02:07:56;;;;;;;31.55;22.95;;;;;;;6.50;76.01;99109.53;1742572;81;21123;-63
2021/04/15 02:10:25;;;;;;;32.78;24.65;;;;;;;6.48;76.20;99115.72;1728067;82;21143;-63
2021/04/15 02:12:54;;;;;;;31.40;24.27;;;;;;;6.44;76.38;99115.98;1742873;81;21139;-63
2021/04/15 02:15:32;;;;;;;34.83;23.70;;;;;;;6.49;76.32;99104.37;1763027;81;21185;-64
2021/04/15 02:18:06;;;;;;;35.80;25.08;;;;;;;6.59;76.23;99109.05;1692529;84;21189;-61
2021/04/15 02:20:34;;;;;;;36.58;25.40;;;;;;;6.56;76.35;99110.90;1740833;82;21190;-62
2021/04/15 02:23:25;;;;;;;32.80;25.48;;;;;;;6.51;76.59;99104.94;1741215;81;21153;-61
2021/04/15 02:26:06;;;;;;;36.15;25.20;;;;;;;6.49;76.74;99102.48;1743494;81;21202;-62
2021/04/15 02:29:05;;;;;;;33.13;24.43;;;;;;;6.62;76.49;99096.36;1740482;82;21185;-62
2021/04/15 02:31:50;;;;;;;36.00;25.48;;;;;;;6.67;76.33;99099.89;1745481;81;21166;-63
2021/04/15 02:34:25;;;;;;;34.38;25.75;;;;;;;6.62;76.35;99097.17;1743439;81;21199;-63
2021/04/15 02:37:00;;;;;;;37.88;26.68;;;;;;;6.56;76.48;99097.38;1730004;81;21660;-62
2021/04/15 02:39:32;;;;;;;33.05;23.55;;;;;;;6.60;76.38;99095.78;1695185;83;21154;-62
2021/04/15 02:42:05;;;;;;;32.88;24.18;;;;;;;6.67;76.05;99093.66;1756944;80;21110;-62
2021/04/15 02:44:48;;;;;;;38.78;25.70;;;;;;;6.63;76.06;99096.61;1745342;80;21170;-62
2021/04/15 02:47:23;;;;;;;37.70;27.37;;;;;;;6.56;76.24;99102.78;1670421;83;21569;-62
2021/04/15 02:49:57;;;;;;;36.60;25.43;;;;;;;6.57;76.42;99093.61;1768574;79;22406;-62
2021/04/15 02:52:31;;;;;;;35.15;25.55;;;;;;;6.59;76.24;99099.02;1717747;83;21281;-62
2021/04/15 02:55:02;;;;;;;34.58;26.52;;;;;;;6.57;76.21;99103.06;1722613;82;21586;-62
2021/04/15 02:57:45;;;;;;;36.60;26.97;;;;;;;6.49;76.41;99097.08;1671168;84;21153;-62
2021/04/15 03:00:17;;;;;;;38.38;26.10;;;;;;;6.42;76.68;99091.61;1706491;83;21561;-62
2021/04/15 03:02:59;;;;;;;35.60;23.83;;;;;;;6.46;76.62;99100.30;1692781;83;21639;-62
2021/04/15 03:05:28;;;;;;;31.07;22.50;;;;;;;6.54;76.47;99096.84;1716529;83;21651;-62
2021/04/15 03:07:59;;;;;;;31.62;21.97;;;;;;;6.30;75.74;99102.64;1720483;83;21790;-62
2021/04/15 03:10:36;;;;;;;32.60;22.82;;;;;;;6.00;75.88;99099.67;1720561;83;21169;-62
2021/04/15 03:13:15;;;;;;;29.92;22.17;;;;;;;5.86;76.17;99099.82;1720465;83;21157;-62
2021/04/15 03:15:56;;;;;;;30.75;21.33;;;;;;;5.77;76.75;99098.64;1701143;83;21203;-61
2021/04/15 03:18:41;;;;;;;34.50;21.97;;;;;;;5.74;77.17;99099.16;1661434;86;21192;-63
2021/04/15 03:21:24;;;;;;;32.13;22.80;;;;;;;5.69;77.71;99109.36;1679294;85;21643;-62
2021/04/15 03:24:01;;;;;;;33.08;22.22;;;;;;;5.71;77.64;99109.91;1679532;85;21600;-61
2021/04/15 03:26:54;;;;;;;31.87;21.05;;;;;;;5.72;77.72;99110.20;1681291;85;21192;-61
2021/04/15 03:29:28;;;;;;;31.90;21.93;;;;;;;5.71;77.96;99112.61;1680471;85;21651;-61
2021/04/15 03:32:19;;;;;;;33.65;22.80;;;;;;;5.65;78.15;99108.23;1670244;85;21193;-61
2021/04/15 03:34:58;;;;;;;35.65;24.18;;;;;;;5.70;78.05;99115.58;1673529;85;21185;-63
2021/04/15 03:37:31;;;;;;;37.08;25.55;;;;;;;5.75;78.26;99112.39;1660071;85;21660;-62
2021/04/15 03:39:59;;;;;;;33.90;25.25;;;;;;;5.77;78.82;99094.59;1665419;85;21641;-62
2021/04/15 03:42:36;;;;;;;33.18;23.75;;;;;;;5.89;78.96;99096.60;1683349;85;21184;-63
2021/04/15 03:45:15;;;;;;;31.52;24.67;;;;;;;6.07;78.82;99096.75;1681219;85;21184;-61
2021/04/15 03:47:47;;;;;;;36.53;24.77;;;;;;;6.17;78.92;99096.83;1681331;85;21188;-62
2021/04/15 03:50:19;;;;;;;34.35;25.40;;;;;;;6.22;79.01;99099.59;1669038;85;21204;-62
2021/04/15 03:53:00;;;;;;;35.73;23.87;;;;;;;6.26;78.98;99102.05;1679810;85;21184;-61
2021/04/15 03:55:43;;;;;;;32.28;23.60;;;;;;;6.41;78.59;99106.23;1665489;85;21196;-61
2021/04/15 03:58:21;;;;;;;35.40;25.62;;;;;;;6.53;78.28;99101.95;1681425;85;21279;-61
2021/04/15 04:00:52;;;;;;;36.68;25.57;;;;;;;6.59;78.29;99101.73;1676141;85;21197;-61
2021/04/15 04:03:23;;;;;;;33.30;24.40;;;;;;;6.61;78.34;99104.18;1667306;85;21326;-62
2021/04/15 04:06:13;;;;;;;36.10;24.60;;;;;;;6.68;78.27;99107.47;1687078;85;21355;-61
2021/04/15 04:09:02;;;;;;;34.83;23.67;;;;;;;6.80;78.06;99108.88;1680831;85;21631;-63
2021/04/15 04:11:32;;;;;;;29.12;23.35;;;;;;;6.87;78.17;99110.03;1682835;85;21590;-61
2021/04/15 04:14:05;;;;;;;33.73;24.60;;;;;;;6.88;78.41;99110.28;1665176;84;21210;-61
2021/04/15 04:17:05;;;;;;;30.00;22.48;;;;;;;6.93;78.44;99114.38;1659980;85;21192;-61
2021/04/15 04:19:49;;;;;;;30.30;23.45;;;;;;;7.07;78.25;99114.17;1590309;88;21249;-61
2021/04/15 04:22:27;;;;;;;30.43;24.43;;;;;;;7.29;77.92;99115.35;1646854;85;21193;-63
2021/04/15 04:25:40;;;;;;;28.83;22.87;;;;;;;7.42;77.86;99112.95;1659342;85;21355;-62
2021/04/15 04:28:38;;;;;;;31.37;23.52;;;;;;;7.49;77.53;99110.81;1660955;85;21746;-62
2021/04/15 04:31:27;;;;;;;32.88;24.18;;;;;;;7.50;77.38;99100.26;1669269;85;21212;-62
2021/04/15 04:33:56;;;;;;;34.18;23.45;;;;;;;7.65;76.99;99103.52;1678582;85;21162;-61
2021/04/15 04:36:26;;;;;;;28.57;21.52;;;;;;;7.76;76.49;99103.81;1667739;85;21156;-61
2021/04/15 04:38:56;;;;;;;37.40;25.82;;;;;;;7.78;76.53;99103.56;1682829;85;21225;-61
2021/04/15 04:41:51;;;;;;;35.95;26.20;;;;;;;7.80;76.75;99112.22;1671846;85;21212;-62
2021/04/15 04:44:37;;;;;;;54.03;37.35;;;;;;;7.86;76.87;99110.63;1680365;85;21232;-63
2021/04/15 04:47:31;;;;;;;53.02;38.45;;;;;;;8.07;76.28;99110.10;1676233;84;21177;-62
2021/04/15 04:50:10;;;;;;;40.92;29.90;;;;;;;8.27;75.64;99116.05;1691537;84;21177;-63
2021/04/15 04:52:38;;;;;;;40.12;28.05;;;;;;;8.41;75.45;99113.91;1688215;84;21150;-63
2021/04/15 04:55:36;;;;;;;35.45;26.50;;;;;;;8.53;75.06;99115.53;1667986;85;21192;-63
2021/04/15 04:58:13;;;;;;;44.40;32.27;;;;;;;8.69;74.80;99113.05;1598174;86;21158;-62
2021/04/15 05:00:46;;;;;;;;;;;;;;;8.83;74.56;99112.21;1665887;86;21197;-63
2021/04/15 05:03:19;;;;;;;41.50;31.77;;;;;;;9.06;74.69;99114.05;1687352;84;20175;-62
2021/04/15 05:05:48;;;;;;;40.88;30.10;;;;;;;9.29;74.46;99113.41;1678326;84;21581;-63
2021/04/15 05:08:22;;;;;;;37.13;29.30;;;;;;;9.62;73.59;99110.00;1709402;84;21606;-63
2021/04/15 05:10:53;;;;;;;38.58;27.62;;;;;;;9.95;71.71;99120.09;1709010;84;21311;-62
2021/04/15 05:13:28;;;;;;;31.45;25.05;;;;;;;10.22;70.72;99112.06;1705272;84;21605;-63
2021/04/15 05:15:56;;;;;;;27.77;24.47;;;;;;;10.20;69.06;99087.84;1709029;84;21299;-63
2021/04/15 05:18:23;;;;;;;31.50;23.85;;;;;;;10.45;68.33;99112.70;1707264;83;21641;-63
2021/04/15 05:20:55;;;;;;;27.75;22.50;;;;;;;10.57;68.33;99115.83;1707121;84;21137;-62
2021/04/15 05:23:46;;;;;;;29.27;23.57;;;;;;;10.63;67.66;99109.23;1695616;84;21156;-62
2021/04/15 05:26:41;;;;;;;30.60;24.57;;;;;;;10.74;67.63;99109.40;1647456;85;21222;-63
2021/04/15 05:29:19;;;;;;;31.62;24.52;;;;;;;10.91;67.42;99107.61;1642359;87;21195;-64
2021/04/15 05:31:47;;;;;;;33.48;25.62;;;;;;;11.14;66.55;99106.79;1666700;85;21621;-64
2021/04/15 05:34:28;;;;;;;32.55;24.92;;;;;;;11.30;65.22;99106.85;1699108;84;21295;-63
2021/04/15 05:37:06;;;;;;;29.67;24.67;;;;;;;11.53;66.39;99107.94;1678148;84;21213;-64
2021/04/15 05:39:35;;;;;;;29.02;24.12;;;;;;;11.87;65.49;99111.84;1673089;84;21649;-63
2021/04/15 05:42:17;;;;;;;30.45;23.95;;;;;;;12.03;64.74;99107.80;1705104;84;21351;-63
2021/04/15 05:44:55;;;;;;;28.98;23.57;;;;;;;12.21;63.33;99110.25;1686200;84;21202;-63
2021/04/15 05:47:44;;;;;;;27.77;21.30;;;;;;;12.39;63.42;99102.58;1703342;84;21170;-63
2021/04/15 05:50:17;;;;;;;23.83;19.82;;;;;;;12.72;63.62;99103.34;1678419;83;21205;-63
2021/04/15 05:52:48;;;;;;;26.30;21.37;;;;;;;13.12;62.23;99106.72;1683579;84;21190;-63
2021/04/15 05:55:20;;;;;;;26.55;22.87;;;;;;;13.30;60.47;99100.34;1697104;84;21336;-64
2021/04/15 05:57:51;;;;;;;25.27;21.10;;;;;;;13.12;60.85;99099.88;1702033;84;21230;-63
2021/04/15 06:00:30;;;;;;;31.20;22.95;;;;;;;13.00;60.77;99096.83;1702382;84;21349;-63
2021/04/15 06:03:13;;;;;;;30.43;21.93;;;;;;;12.83;60.61;99097.41;1683501;84;21197;-63
2021/04/15 06:05:51;;;;;;;29.12;23.85;;;;;;;12.65;61.26;99098.28;1701782;84;21328;-62
2021/04/15 06:08:18;;;;;;;27.48;22.27;;;;;;;12.48;61.98;99096.13;1673772;85;21219;-63
2021/04/15 06:10:48;;;;;;;28.45;24.12;;;;;;;12.46;61.93;99102.45;1698256;84;21295;-62
2021/04/15 06:13:26;;;;;;;29.72;24.37;;;;;;;12.50;62.04;99095.84;1695381;84;21549;-63
2021/04/15 06:16:03;;;;;;;30.35;22.32;;;;;;;12.54;61.94;99100.14;1705954;84;21195;-62
2021/04/15 06:18:38;;;;;;;28.40;23.42;;;;;;;12.63;61.91;99097.78;1656830;86;21202;-63
2021/04/15 06:21:18;;;;;;;29.75;22.93;;;;;;;12.70;61.70;99093.30;1682252;84;21134;-63
2021/04/15 06:23:53;;;;;;;34.80;28.07;;;;;;;12.65;61.95;99098.83;1695452;84;21182;-62
2021/04/15 06:26:34;;;;;;;36.98;27.37;;;;;;;12.44;61.24;99097.02;1702418;84;21344;-63
2021/04/15 06:29:08;;;;;;;37.55;26.82;;;;;;;11.93;62.20;99103.86;1682642;82;21191;-62
2021/04/15 06:31:43;;;;;;;34.55;25.88;;;;;;;11.49;63.84;99106.89;1661817;85;21208;-63
2021/04/15 06:34:12;;;;;;;33.00;25.17;;;;;;;11.35;65.03;99110.89;1690551;85;21165;-63
2021/04/15 06:36:47;;;;;;;33.60;25.00;;;;;;;11.40;65.00;99112.75;1642961;83;21134;-62
2021/04/15 06:39:34;;;;;;;31.07;26.10;;;;;;;11.49;65.40;99106.89;1675810;85;21163;-61
2021/04/15 06:42:43;;;;;;;33.63;26.57;;;;;;;11.63;65.16;99105.61;1686713;85;21333;-60
2021/04/15 06:45:23;;;;;;;31.35;24.52;;;;;;;11.70;64.73;99108.78;1688514;85;21301;-60
2021/04/15 06:48:40;;;;;;;31.85;24.30;;;;;;;11.76;64.55;99109.03;1684168;85;21186;-61
2021/04/15 06:51:30;;;;;;;30.35;23.92;;;;;;;11.90;64.26;99106.61;1635099;87;21203;-61
2021/04/15 06:54:32;;;;;;;29.57;23.95;;;;;;;11.89;63.74;99109.64;1634725;86;21322;-59
2021/04/15 06:57:24;;;;;;;28.12;22.90;;;;;;;11.88;63.75;99106.65;1663674;86;21790;-60
2021/04/15 07:00:45;;;;;;;30.75;22.90;;;;;;;11.83;63.97;99107.53;1634977;87;21708;-61
2021/04/15 07:03:36;;;;;;;29.15;23.55;;;;;;;11.79;64.54;99102.98;1644289;87;21149;-62
2021/04/15 07:06:21;;;;;;;28.45;22.05;;;;;;;11.92;64.04;99103.59;1673042;85;21154;-61
2021/04/15 07:26:35;;;;;;;36.98;31.42;;;;;;;13.55;60.05;99093.53;1826309;76;22464;-58
2021/04/15 07:29:54;;;;;;;48.07;38.90;;;;;;;13.53;59.50;99101.80;1726288;81;21187;-57
2021/04/15 07:32:44;;;;;;;36.40;28.67;;;;;;;13.22;59.99;99101.59;1792423;79;21561;-59
2021/04/15 07:35:33;;;;;;;36.13;28.92;;;;;;;13.02;61.06;99100.61;1786756;78;21854;-59
2021/04/15 07:38:23;;;;;;;30.85;24.75;;;;;;;12.90;61.39;99097.81;1782674;79;21086;-59
2021/04/15 07:41:27;;;;;;;27.42;22.58;;;;;;;12.85;61.52;99098.48;1805945;79;21140;-58
2021/04/15 07:44:16;;;;;;;33.92;25.80;;;;;;;12.86;61.76;99103.63;1802805;79;21204;-58
2021/04/15 07:47:39;;;;;;;25.87;20.73;;;;;;;13.02;59.60;99100.05;1791563;79;23562;-59
2021/04/15 07:50:28;;;;;;;28.45;20.77;;;;;;;13.02;59.60;99100.05;1784590;80;21973;-58
2021/04/15 07:53:21;;;;;;;30.70;22.37;;;;;;;13.14;60.88;99104.51;1762719;80;21168;-59
2021/04/15 07:56:17;;;;;;;26.87;21.93;;;;;;;13.28;60.04;99104.50;1778959;80;21134;-59
2021/04/15 07:59:10;;;;;;;24.60;20.25;;;;;;;13.30;60.25;99107.17;1764518;79;21722;-59
2021/04/15 08:02:20;;;;;;;27.27;20.75;;;;;;;13.28;59.47;99101.22;1761528;79;21277;-59
2021/04/15 08:05:12;;;;;;;29.75;22.82;;;;;;;13.36;59.92;99105.13;1781601;79;21368;-59
2021/04/15 08:08:23;;;;;;;24.45;19.32;;;;;;;13.49;59.47;99108.43;1764890;79;21173;-59
2021/04/15 08:11:15;;;;;;;25.02;21.57;;;;;;;13.58;59.00;99106.58;1766347;80;21160;-59
2021/04/15 08:14:06;;;;;;;24.27;20.90;;;;;;;13.61;58.27;99105.16;1765026;80;21160;-59
2021/04/15 08:16:47;;;;;;;22.10;18.65;;;;;;;13.65;58.31;99108.34;1762948;80;21152;-60
2021/04/15 08:19:41;;;;;;;23.22;19.45;;;;;;;13.71;58.09;99106.32;1662623;83;21596;-58
2021/04/15 08:22:41;;;;;;;24.05;18.95;;;;;;;13.71;57.87;99106.32;1694741;84;21310;-58
2021/04/15 08:25:36;;;;;;;22.17;17.85;;;;;;;13.79;57.92;99100.10;1725150;83;21125;-58
2021/04/15 08:28:39;;;;;;;22.37;19.05;;;;;;;13.92;56.20;99096.54;1741976;81;21166;-59
2021/04/15 08:31:46;;;;;;;22.20;18.15;;;;;;;14.03;56.50;99094.37;1731601;81;21172;-58
2021/04/15 08:34:29;;;;;;;21.75;16.67;;;;;;;14.23;56.26;99091.95;1721635;83;21157;-59
2021/04/15 08:37:23;;;;;;;19.90;15.55;;;;;;;14.52;54.46;99086.63;1714247;83;21197;-59
2021/04/15 08:52:36;;;;;;;12.25;10.98;;;;;;;16.58;47.53;99091.22;1793977;79;22695;-61
2021/04/15 08:55:37;;;;;;;14.75;11.65;;;;;;;16.69;45.12;99083.65;1760799;81;21654;-62
2021/04/15 08:58:58;;;;;;;16.75;12.65;;;;;;;16.54;45.28;99085.53;1764544;81;21283;-61
2021/04/15 09:02:09;;;;;;;14.20;10.98;;;;;;;16.44;47.64;99057.00;1772965;80;21195;-61
2021/04/15 09:04:58;;;;;;;17.15;12.05;;;;;;;16.59;44.97;99079.06;1766830;81;21160;-61
2021/04/15 09:07:42;;;;;;;14.13;11.73;;;;;;;16.55;45.03;99082.19;1732638;82;21194;-61
2021/04/15 09:10:17;;;;;;;12.15;10.88;;;;;;;16.48;45.47;99082.69;1732576;83;21183;-62
2021/04/15 09:13:13;;;;;;;8.57;7.53;;;;;;;16.40;44.18;99083.54;1714767;83;21624;-62
2021/04/15 09:16:09;;;;;;;13.13;10.68;;;;;;;16.50;44.86;99075.52;1702931;83;21902;-62
2021/04/15 09:18:52;;;;;;;10.82;9.50;;;;;;;16.46;45.13;99073.98;1718402;83;21314;-63
2021/04/15 09:21:40;;;;;;;12.50;9.70;;;;;;;16.53;44.77;99074.86;1697150;83;21188;-63
2021/04/15 09:24:30;;;;;;;9.83;8.35;;;;;;;16.72;44.84;99069.25;1731628;83;21160;-61
2021/04/15 09:27:27;;;;;;;12.25;9.60;;;;;;;16.77;42.09;99065.52;1716901;82;21608;-62
2021/04/15 09:30:09;;;;;;;11.97;9.48;;;;;;;16.81;43.03;99063.17;1694394;82;21160;-62
2021/04/15 09:33:00;;;;;;;10.98;8.68;;;;;;;16.68;43.02;99060.07;1682160;84;21192;-63
2021/04/15 09:36:09;;;;;;;8.85;6.08;;;;;;;16.61;43.02;99057.02;1715925;83;21163;-62
2021/04/15 09:39:21;;;;;;;6.37;5.62;;;;;;;16.57;40.69;99047.81;1706016;84;21189;-64
2021/04/15 09:42:16;;;;;;;7.78;6.05;;;;;;;16.47;38.91;99046.77;1702656;84;21201;-64
2021/04/15 09:45:00;;;;;;;8.80;6.80;;;;;;;16.38;39.11;99049.52;1733068;81;21302;-63
2021/04/15 09:48:00;;;;;;;9.28;6.87;;;;;;;16.39;39.88;99051.14;1694348;83;21707;-62
2021/04/15 09:50:48;;;;;;;10.90;8.25;;;;;;;16.58;40.43;99050.00;1718587;83;21185;-63
2021/04/15 09:54:05;;;;;;;9.60;7.30;;;;;;;16.75;40.94;99038.95;1711135;83;21567;-61
2021/04/15 09:56:49;;;;;;;9.35;7.45;;;;;;;16.95;40.05;99038.77;1713521;82;21137;-63
2021/04/15 09:59:50;;;;;;;8.03;7.22;;;;;;;17.23;39.94;99040.73;1760185;79;22873;-63
2021/04/15 10:02:38;;;;;;;8.60;7.72;;;;;;;17.34;38.78;99041.97;1714159;83;21185;-63
2021/04/15 10:05:09;;;;;;;9.43;8.05;;;;;;;17.42;40.05;99040.31;1712203;83;21172;-63
2021/04/15 10:07:52;;;;;;;12.47;9.80;;;;;;;17.50;39.38;99029.80;1657908;83;21615;-64
2021/04/15 10:10:51;;;;;;;15.25;11.48;;;;;;;17.54;41.07;99029.93;1708204;82;21179;-65
2021/04/15 10:13:45;;;;;;;17.65;14.33;;;;;;;17.52;41.92;99031.66;1710759;83;21180;-64
2021/04/15 10:16:21;;;;;;;12.33;10.98;;;;;;;17.46;42.87;99027.50;1704104;83;21307;-66
2021/04/15 10:19:35;;;;;;;12.43;11.00;;;;;;;17.29;42.54;99024.83;1707572;83;21275;-66
2021/04/15 10:22:59;;;;;;;13.08;11.10;;;;;;;17.17;41.73;99029.70;1719981;83;21177;-68
2021/04/15 10:26:00;;;;;;;12.68;10.85;;;;;;;16.99;42.00;99030.92;1703697;83;21141;-63
2021/04/15 10:28:56;;;;;;;13.28;11.15;;;;;;;16.99;42.26;99026.80;1699060;84;21164;-62
2021/04/15 10:32:02;;;;;;;14.40;11.97;;;;;;;17.08;42.70;99031.67;1676049;84;21302;-64
2021/04/15 10:35:00;;;;;;;13.98;11.60;;;;;;;17.05;42.99;99033.70;1692540;84;21295;-62
2021/04/15 10:38:08;;;;;;;13.43;11.08;;;;;;;16.98;42.80;99030.67;1686503;83;21145;-62
2021/04/15 10:41:13;;;;;;;11.55;10.20;;;;;;;17.04;43.20;99033.46;1671837;84;21175;-62
2021/04/15 10:44:15;;;;;;;11.48;10.28;;;;;;;16.85;41.77;99029.77;1672429;85;21293;-61
2021/04/15 10:47:14;;;;;;;11.83;9.95;;;;;;;16.58;41.72;99028.02;1673317;84;21233;-61
2021/04/15 10:50:13;;;;;;;13.88;11.22;;;;;;;16.53;42.36;99019.91;1691755;85;21155;-62
2021/04/15 10:53:13;;;;;;;12.73;10.55;;;;;;;16.61;42.50;99028.73;1691582;85;21759;-62
2021/04/15 10:55:46;;;;;;;12.13;10.32;;;;;;;16.61;43.44;99028.73;1689223;85;21203;-63
2021/04/15 10:58:30;;;;;;;13.10;9.65;;;;;;;16.64;42.01;99027.51;1692589;85;21611;-63
2021/04/15 11:01:20;;;;;;;11.78;8.78;;;;;;;16.55;42.40;99023.13;1654212;85;21258;-63
2021/04/15 11:03:48;;;;;;;12.25;9.00;;;;;;;16.39;41.21;99026.41;1691608;85;21303;-63
2021/04/15 11:06:42;;;;;;;10.48;9.13;;;;;;;16.16;41.13;99019.50;1692853;85;21213;-63
2021/04/15 11:09:34;;;;;;;15.18;9.38;;;;;;;16.11;41.86;99018.31;1692685;84;21152;-63
2021/04/15 11:12:16;;;;;;;12.35;10.13;;;;;;;16.16;41.74;99026.36;1692196;85;21631;-65
2021/04/15 11:14:58;;;;;;;10.75;9.33;;;;;;;16.23;41.40;99028.61;1692220;85;21132;-64
2021/04/15 11:20:27;;;;;;;14.03;9.63;;;;;;;16.29;43.36;99021.27;1748731;79;22723;-67
2021/04/15 11:23:11;;;;;;;11.03;9.00;;;;;;;16.26;42.64;99023.27;1723531;82;21161;-65
2021/04/15 11:25:45;;;;;;;13.55;10.40;;;;;;;16.27;41.98;99028.20;1746864;82;21133;-66
2021/04/15 11:28:29;;;;;;;16.05;11.80;;;;;;;16.10;42.61;99022.19;1752465;82;21303;-66
2021/04/15 11:31:15;;;;;;;14.28;10.93;;;;;;;15.94;43.75;99023.23;1744663;81;21205;-65
2021/04/15 11:33:46;;;;;;;11.00;9.90;;;;;;;15.91;43.23;99020.33;1726063;82;21188;-65
2021/04/15 11:36:29;;;;;;;15.58;13.53;;;;;;;15.86;42.78;99017.20;1751675;82;21190;-64
2021/04/15 11:39:09;;;;;;;14.15;12.65;;;;;;;15.77;43.26;99008.72;1750294;81;21462;-66
2021/04/15 11:42:05;;;;;;;12.33;10.95;;;;;;;15.71;43.12;99010.83;1749691;80;21169;-65
2021/04/15 11:44:37;;;;;;;14.90;10.93;;;;;;;15.72;43.54;99011.64;1734391;80;21187;-67
2021/04/15 11:47:25;;;;;;;16.97;12.35;;;;;;;15.77;43.20;99015.02;1735254;82;21586;-67
2021/04/15 11:49:53;;;;;;;12.58;11.20;;;;;;;15.88;43.28;99007.26;1754598;80;21129;-67
2021/04/15 11:52:38;;;;;;;16.27;10.88;;;;;;;15.96;43.39;99013.31;1746472;82;21133;-67
2021/04/15 11:55:14;;;;;;;12.70;9.23;;;;;;;16.05;43.35;99005.09;1752201;82;21160;-66
2021/04/15 11:57:55;;;;;;;12.65;9.60;;;;;;;16.11;42.88;99008.70;1734712;82;21202;-67
2021/04/15 12:00:30;;;;;;;11.22;9.15;;;;;;;16.10;43.33;99003.52;1675471;84;21163;-65
2021/04/15 12:03:03;;;;;;;14.28;10.08;;;;;;;15.88;43.98;99011.38;1693289;84;21669;-66
2021/04/15 12:05:37;;;;;;;12.30;10.45;;;;;;;15.64;45.60;99011.88;1709705;83;21155;-66
2021/04/15 12:08:25;;;;;;;18.02;13.00;;;;;;;15.50;46.51;99017.27;1706375;84;21166;-66
2021/04/15 12:11:24;;;;;;;13.03;11.22;;;;;;;15.37;47.50;99019.00;1724335;82;21140;-66
2021/04/15 12:14:01;;;;;;;12.95;11.10;;;;;;;15.22;48.14;99016.70;1721730;82;21205;-66
2021/04/15 12:17:00;;;;;;;12.05;10.85;;;;;;;15.04;48.35;99021.34;1726490;82;21125;-66
2021/04/15 12:20:09;;;;;;;11.93;9.83;;;;;;;14.88;48.98;99014.66;1724512;82;21158;-67
2021/04/15 12:22:45;;;;;;;11.55;9.58;;;;;;;14.73;49.08;99019.22;1721151;82;21122;-67
2021/04/15 12:25:25;;;;;;;11.85;9.00;;;;;;;14.51;49.41;99012.42;1711096;82;21161;-66
2021/04/15 12:28:27;;;;;;;10.80;8.70;;;;;;;14.50;49.55;99023.94;1652172;86;21122;-67
2021/04/15 12:31:25;;;;;;;10.85;8.70;;;;;;;14.52;49.48;99021.70;1679590;84;21211;-67
2021/04/15 12:34:18;;;;;;;9.80;8.48;;;;;;;14.59;49.14;99014.41;1663408;86;21350;-66
2021/04/15 12:36:57;;;;;;;11.68;8.48;;;;;;;14.62;49.30;99019.24;1694253;82;21344;-64
2021/04/15 12:39:28;;;;;;;11.93;8.30;;;;;;;14.63;48.66;99010.69;1716561;82;21185;-65
2021/04/15 12:41:55;;;;;;;10.15;8.03;;;;;;;14.73;49.62;99006.33;1737244;81;21299;-65
2021/04/15 12:44:26;;;;;;;8.58;7.17;;;;;;;14.93;48.67;99013.97;1711155;81;21161;-65
2021/04/15 12:46:56;;;;;;;11.53;8.30;;;;;;;15.08;48.44;99011.36;1725596;82;21243;-64
2021/04/15 12:49:25;;;;;;;8.88;6.62;;;;;;;15.15;47.53;99001.29;1731031;81;21303;-64
2021/04/15 12:51:58;;;;;;;9.75;7.87;;;;;;;15.19;47.62;99007.20;1737694;82;21182;-66
2021/04/15 12:54:32;;;;;;;8.53;7.72;;;;;;;15.15;48.23;99004.84;1731726;82;21154;-65
2021/04/15 12:57:06;;;;;;;8.70;7.80;;;;;;;15.08;48.06;99005.06;1703056;82;21203;-66
2021/04/15 12:59:44;;;;;;;12.45;7.70;;;;;;;15.04;49.22;99006.82;1720060;82;21170;-65
2021/04/15 13:02:27;;;;;;;7.10;6.15;;;;;;;15.01;49.33;99001.42;1713010;82;21161;-66
2021/04/15 13:05:07;;;;;;;9.13;7.35;;;;;;;14.93;50.23;98998.89;1640705;86;21299;-66
2021/04/15 13:07:40;;;;;;;11.28;8.40;;;;;;;14.88;50.33;99004.51;1734918;82;21118;-65
2021/04/15 13:10:18;;;;;;;9.05;8.15;;;;;;;14.76;51.22;99004.88;1722477;82;21207;-65